createdAt,value
2022-08-23T00:00:13.724Z,21.40
2022-08-23T00:01:15.010Z,21.30
2022-08-23T00:02:23.705Z,21.30
2022-08-23T00:03:16.383Z,21.20
2022-08-23T00:04:18.170Z,21.10
2022-08-23T00:05:14.571Z,21.10
2022-08-23T00:06:13.851Z,21.10
2022-08-23T00:07:15.601Z,21.00
2022-08-23T00:08:16.171Z,21.00
2022-08-23T00:09:13.567Z,21.00
2022-08-23T00:10:15.532Z,21.00
2022-08-23T00:11:13.737Z,20.90
2022-08-23T00:12:13.543Z,20.80
2022-08-23T00:13:13.506Z,20.80
2022-08-23T00:14:16.396Z,20.80
2022-08-23T00:15:15.978Z,20.70
2022-08-23T00:16:14.535Z,20.70
2022-08-23T00:17:33.587Z,20.70
2022-08-23T00:18:14.770Z,20.70
2022-08-23T00:19:13.680Z,20.70
2022-08-23T00:20:14.716Z,20.70
2022-08-23T00:21:13.703Z,20.70
2022-08-23T00:22:13.599Z,20.80
2022-08-23T00:23:14.116Z,20.80
2022-08-23T00:24:13.010Z,20.80
2022-08-23T00:25:14.630Z,20.90
2022-08-23T00:26:14.357Z,20.90
2022-08-23T00:27:15.144Z,20.80
2022-08-23T00:28:14.738Z,20.80
2022-08-23T00:29:13.126Z,20.70
2022-08-23T00:30:13.098Z,20.70
2022-08-23T00:31:12.949Z,20.70
2022-08-23T00:32:12.869Z,20.70
2022-08-23T00:33:15.802Z,20.70
2022-08-23T00:34:15.535Z,20.70
2022-08-23T00:35:26.660Z,20.60
2022-08-23T00:36:14.944Z,20.60
2022-08-23T00:37:15.919Z,20.60
2022-08-23T00:38:34.487Z,20.60
2022-08-23T00:39:13.185Z,20.40
2022-08-23T00:40:13.491Z,20.30
2022-08-23T00:41:13.594Z,20.40
2022-08-23T00:42:13.430Z,20.40
2022-08-23T00:43:13.230Z,20.40
2022-08-23T00:44:15.360Z,20.30
2022-08-23T00:45:13.200Z,20.40
2022-08-23T00:46:15.506Z,20.40
2022-08-23T00:47:15.242Z,20.40
2022-08-23T00:48:13.303Z,20.30
2022-08-23T00:49:13.744Z,20.20
2022-08-23T00:50:23.357Z,20.30
2022-08-23T00:51:14.747Z,20.40
2022-08-23T00:52:13.934Z,20.40
2022-08-23T00:53:12.920Z,20.40
2022-08-23T00:54:15.693Z,20.40
2022-08-23T00:55:13.642Z,20.40
2022-08-23T00:56:16.553Z,20.20
2022-08-23T00:57:13.428Z,20.20
2022-08-23T00:58:13.419Z,20.10
2022-08-23T00:59:16.627Z,20.10
2022-08-23T01:00:13.502Z,20.10
2022-08-23T01:01:13.387Z,20.10
2022-08-23T01:02:13.531Z,20.00
2022-08-23T01:03:13.872Z,20.10
2022-08-23T01:04:18.179Z,20.20
2022-08-23T01:05:14.861Z,20.20
2022-08-23T01:06:15.382Z,20.10
2022-08-23T01:07:13.393Z,20.00
2022-08-23T01:08:14.697Z,20.00
2022-08-23T01:09:15.303Z,20.10
2022-08-23T01:10:13.283Z,20.10
2022-08-23T01:11:12.818Z,20.00
2022-08-23T01:12:14.176Z,20.00
2022-08-23T01:13:14.113Z,19.90
2022-08-23T01:14:13.010Z,19.90
2022-08-23T01:15:14.600Z,19.90
2022-08-23T01:16:13.550Z,19.70
2022-08-23T01:17:14.059Z,19.70
2022-08-23T01:18:13.014Z,19.80
2022-08-23T01:19:12.798Z,19.80
2022-08-23T01:20:13.695Z,19.80
2022-08-23T01:21:14.529Z,19.60
2022-08-23T01:22:13.298Z,19.70
2022-08-23T01:23:13.403Z,19.80
2022-08-23T01:24:19.088Z,19.80
2022-08-23T01:25:14.032Z,19.80
2022-08-23T01:26:13.016Z,19.70
2022-08-23T01:27:12.958Z,19.60
2022-08-23T01:28:14.375Z,19.50
2022-08-23T01:29:13.218Z,19.60
2022-08-23T01:30:13.044Z,19.70
2022-08-23T01:31:13.115Z,19.60
2022-08-23T01:32:13.641Z,19.60
2022-08-23T01:33:16.009Z,19.50
2022-08-23T01:34:14.455Z,19.50
2022-08-23T01:35:15.946Z,19.50
2022-08-23T01:36:13.028Z,19.60
2022-08-23T01:37:14.700Z,19.50
2022-08-23T01:38:14.112Z,19.50
2022-08-23T01:39:13.402Z,19.40
2022-08-23T01:40:13.623Z,19.50
2022-08-23T01:41:14.427Z,19.50
2022-08-23T01:42:14.629Z,19.40
2022-08-23T01:43:15.247Z,19.40
2022-08-23T01:44:13.316Z,19.20
2022-08-23T01:45:13.141Z,19.20
2022-08-23T01:46:14.820Z,19.20
2022-08-23T01:47:17.113Z,19.20
2022-08-23T01:48:13.280Z,19.20
2022-08-23T01:49:13.091Z,19.10
2022-08-23T01:50:13.216Z,19.10
2022-08-23T01:51:13.277Z,19.20
2022-08-23T01:52:13.125Z,19.20
2022-08-23T01:53:13.246Z,19.40
2022-08-23T01:54:14.109Z,19.40
2022-08-23T01:55:14.469Z,19.40
2022-08-23T01:56:16.258Z,19.30
2022-08-23T01:57:13.369Z,19.30
2022-08-23T01:58:13.354Z,19.20
2022-08-23T01:59:13.274Z,19.20
2022-08-23T02:00:13.604Z,19.30
2022-08-23T02:01:13.705Z,19.30
2022-08-23T02:02:15.366Z,19.50
2022-08-23T02:03:13.369Z,19.60
2022-08-23T02:04:13.416Z,19.60
2022-08-23T02:05:13.392Z,19.70
2022-08-23T02:06:13.066Z,19.70
2022-08-23T02:07:12.905Z,19.70
2022-08-23T02:08:13.947Z,19.70
2022-08-23T02:09:17.919Z,19.70
2022-08-23T02:10:13.223Z,19.60
2022-08-23T02:11:13.207Z,19.70
2022-08-23T02:12:13.107Z,19.70
2022-08-23T02:13:14.784Z,19.60
2022-08-23T02:14:15.178Z,19.70
2022-08-23T02:15:15.018Z,19.60
2022-08-23T02:16:15.038Z,19.60
2022-08-23T02:17:13.055Z,19.60
2022-08-23T02:18:13.500Z,19.50
2022-08-23T02:19:12.955Z,19.50
2022-08-23T02:20:14.305Z,19.50
2022-08-23T02:21:13.330Z,19.50
2022-08-23T02:22:13.479Z,19.60
2022-08-23T02:23:13.326Z,19.60
2022-08-23T02:24:13.518Z,19.60
2022-08-23T02:25:13.386Z,19.60
2022-08-23T02:26:13.672Z,19.60
2022-08-23T02:27:13.598Z,19.70
2022-08-23T02:28:13.675Z,19.80
2022-08-23T02:29:13.650Z,19.70
2022-08-23T02:30:13.472Z,19.70
2022-08-23T02:31:13.405Z,19.70
2022-08-23T02:32:13.100Z,19.80
2022-08-23T02:33:13.367Z,19.90
2022-08-23T02:34:13.400Z,19.80
2022-08-23T02:35:13.344Z,19.60
2022-08-23T02:36:13.248Z,19.60
2022-08-23T02:37:15.876Z,19.60
2022-08-23T02:38:14.021Z,19.60
2022-08-23T02:39:13.075Z,19.50
2022-08-23T02:40:14.904Z,19.40
2022-08-23T02:41:12.761Z,19.20
2022-08-23T02:42:13.737Z,19.20
2022-08-23T02:43:13.653Z,19.20
2022-08-23T02:44:14.591Z,19.20
2022-08-23T02:45:15.177Z,19.20
2022-08-23T02:46:13.154Z,19.10
2022-08-23T02:47:13.306Z,19.00
2022-08-23T02:48:14.776Z,19.00
2022-08-23T02:49:13.965Z,19.10
2022-08-23T02:50:12.997Z,19.20
2022-08-23T02:51:14.725Z,19.20
2022-08-23T02:52:13.994Z,19.20
2022-08-23T02:53:14.568Z,19.30
2022-08-23T02:54:13.726Z,19.30
2022-08-23T02:55:13.775Z,19.20
2022-08-23T02:56:21.564Z,19.30
2022-08-23T02:57:13.183Z,19.30
2022-08-23T02:58:13.078Z,19.30
2022-08-23T02:59:13.081Z,19.30
2022-08-23T03:00:13.461Z,19.20
2022-08-23T03:01:14.447Z,19.10
2022-08-23T03:02:15.179Z,19.10
2022-08-23T03:03:13.207Z,18.90
2022-08-23T03:04:14.866Z,18.90
2022-08-23T03:05:13.684Z,19.00
2022-08-23T03:06:25.407Z,18.90
2022-08-23T03:07:13.620Z,18.90
2022-08-23T03:08:15.135Z,18.90
2022-08-23T03:09:13.677Z,18.80
2022-08-23T03:10:13.645Z,18.80
2022-08-23T03:11:15.053Z,18.90
2022-08-23T03:12:13.156Z,19.00
2022-08-23T03:13:13.038Z,19.20
2022-08-23T03:14:12.958Z,19.20
2022-08-23T03:15:12.815Z,19.20
2022-08-23T03:16:13.721Z,19.30
2022-08-23T03:17:13.593Z,19.30
2022-08-23T03:18:13.484Z,19.10
2022-08-23T03:19:13.432Z,19.00
2022-08-23T03:20:13.308Z,19.00
2022-08-23T03:21:13.210Z,19.00
2022-08-23T03:22:13.818Z,19.00
2022-08-23T03:23:14.900Z,18.90
2022-08-23T03:24:13.742Z,19.00
2022-08-23T03:25:13.721Z,19.10
2022-08-23T03:26:13.413Z,19.10
2022-08-23T03:27:13.260Z,19.00
2022-08-23T03:28:13.186Z,19.00
2022-08-23T03:29:12.990Z,19.00
2022-08-23T03:30:17.755Z,19.10
2022-08-23T03:31:15.657Z,19.00
2022-08-23T03:32:15.430Z,19.00
2022-08-23T03:33:13.484Z,19.00
2022-08-23T03:34:13.359Z,19.20
2022-08-23T03:35:15.204Z,19.20
2022-08-23T03:36:13.346Z,19.20
2022-08-23T03:37:13.213Z,19.30
2022-08-23T03:38:13.055Z,19.20
2022-08-23T03:39:14.437Z,19.10
2022-08-23T03:40:13.424Z,19.00
2022-08-23T03:41:15.315Z,19.00
2022-08-23T03:42:13.249Z,18.90
2022-08-23T03:43:13.214Z,18.90
2022-08-23T03:44:13.080Z,18.70
2022-08-23T03:45:12.906Z,18.80
2022-08-23T03:46:12.831Z,18.80
2022-08-23T03:47:13.589Z,18.90
2022-08-23T03:48:14.984Z,18.90
2022-08-23T03:49:13.367Z,18.90
2022-08-23T03:50:13.278Z,18.90
2022-08-23T03:51:13.367Z,18.90
2022-08-23T03:52:13.222Z,18.90
2022-08-23T03:53:13.052Z,18.90
2022-08-23T03:54:12.890Z,18.80
2022-08-23T03:55:12.786Z,18.90
2022-08-23T03:56:15.289Z,18.90
2022-08-23T03:57:13.216Z,18.90
2022-08-23T03:58:13.289Z,19.00
2022-08-23T03:59:13.157Z,19.00
2022-08-23T04:00:13.319Z,19.10
2022-08-23T04:01:13.351Z,19.20
2022-08-23T04:02:19.575Z,19.30
2022-08-23T04:03:15.530Z,19.40
2022-08-23T04:04:13.663Z,19.50
2022-08-23T04:05:13.639Z,19.50
2022-08-23T04:06:13.626Z,19.50
2022-08-23T04:07:13.835Z,19.40
2022-08-23T04:08:13.779Z,19.40
2022-08-23T04:09:13.839Z,19.40
2022-08-23T04:10:13.715Z,19.30
2022-08-23T04:11:14.592Z,19.30
2022-08-23T04:12:17.762Z,19.30
2022-08-23T04:13:12.986Z,19.20
2022-08-23T04:14:12.815Z,19.30
2022-08-23T04:15:13.850Z,19.30
2022-08-23T04:16:13.848Z,19.20
2022-08-23T04:17:13.836Z,19.20
2022-08-23T04:18:14.013Z,19.20
2022-08-23T04:19:12.882Z,19.30
2022-08-23T04:20:13.651Z,19.20
2022-08-23T04:21:13.728Z,19.10
2022-08-23T04:22:13.834Z,19.10
2022-08-23T04:23:13.982Z,19.10
2022-08-23T04:24:12.843Z,19.10
2022-08-23T04:25:34.531Z,19.10
2022-08-23T04:26:13.459Z,19.00
2022-08-23T04:27:13.436Z,19.00
2022-08-23T04:28:16.906Z,19.10
2022-08-23T04:29:12.837Z,19.20
2022-08-23T04:30:13.531Z,19.30
2022-08-23T04:31:13.533Z,19.30
2022-08-23T04:32:13.431Z,19.30
2022-08-23T04:33:17.714Z,19.30
2022-08-23T04:34:15.500Z,19.40
2022-08-23T04:35:13.083Z,19.40
2022-08-23T04:36:13.109Z,19.20
2022-08-23T04:37:13.396Z,19.30
2022-08-23T04:38:24.201Z,19.30
2022-08-23T04:39:13.158Z,19.40
2022-08-23T04:40:13.365Z,19.50
2022-08-23T04:41:13.256Z,19.50
2022-08-23T04:42:14.908Z,19.60
2022-08-23T04:43:13.026Z,19.60
2022-08-23T04:44:13.182Z,19.70
2022-08-23T04:45:13.002Z,19.70
2022-08-23T04:46:14.364Z,19.70
2022-08-23T04:47:13.429Z,19.70
2022-08-23T04:48:14.846Z,19.70
2022-08-23T04:49:13.924Z,19.80
2022-08-23T04:50:12.775Z,19.70
2022-08-23T04:51:13.715Z,19.70
2022-08-23T04:52:18.614Z,19.70
2022-08-23T04:53:13.879Z,19.60
2022-08-23T04:54:14.055Z,19.70
2022-08-23T04:55:13.707Z,19.70
2022-08-23T04:56:13.991Z,19.80
2022-08-23T04:57:12.848Z,19.80
2022-08-23T04:58:15.518Z,19.70
2022-08-23T04:59:15.395Z,19.70
2022-08-23T05:00:13.325Z,19.60
2022-08-23T05:01:13.372Z,19.70
2022-08-23T05:02:19.960Z,19.70
2022-08-23T05:03:12.797Z,19.60
2022-08-23T05:04:13.595Z,19.60
2022-08-23T05:05:13.507Z,19.70
2022-08-23T05:06:13.567Z,19.70
2022-08-23T05:07:13.775Z,19.70
2022-08-23T05:08:13.563Z,19.60
2022-08-23T05:09:16.050Z,19.60
2022-08-23T05:10:13.793Z,19.40
2022-08-23T05:11:13.755Z,19.40
2022-08-23T05:12:13.675Z,19.40
2022-08-23T05:13:13.784Z,19.40
2022-08-23T05:14:13.942Z,19.40
2022-08-23T05:15:12.942Z,19.50
2022-08-23T05:16:13.251Z,19.50
2022-08-23T05:17:13.208Z,19.50
2022-08-23T05:18:13.527Z,19.50
2022-08-23T05:19:13.440Z,19.60
2022-08-23T05:20:13.360Z,19.60
2022-08-23T05:21:13.232Z,19.60
2022-08-23T05:22:14.714Z,19.60
2022-08-23T05:23:13.612Z,19.50
2022-08-23T05:24:14.065Z,19.50
2022-08-23T05:25:13.192Z,19.60
2022-08-23T05:26:14.634Z,19.60
2022-08-23T05:27:13.862Z,19.60
2022-08-23T05:28:12.789Z,19.60
2022-08-23T05:29:13.847Z,19.70
2022-08-23T05:30:15.485Z,19.50
2022-08-23T05:31:13.822Z,19.60
2022-08-23T05:32:13.806Z,19.70
2022-08-23T05:33:13.672Z,19.80
2022-08-23T05:34:13.482Z,19.90
2022-08-23T05:35:13.601Z,19.90
2022-08-23T05:36:13.160Z,20.00
2022-08-23T05:37:14.767Z,20.10
2022-08-23T05:38:16.673Z,20.10
2022-08-23T05:39:13.064Z,20.10
2022-08-23T05:40:13.272Z,20.20
2022-08-23T05:41:13.568Z,20.30
2022-08-23T05:42:13.657Z,20.30
2022-08-23T05:43:13.667Z,20.20
2022-08-23T05:44:13.762Z,20.30
2022-08-23T05:45:14.937Z,20.30
2022-08-23T05:46:13.393Z,20.30
2022-08-23T05:47:13.603Z,20.30
2022-08-23T05:48:14.878Z,20.40
2022-08-23T05:49:13.451Z,20.40
2022-08-23T05:50:13.995Z,20.40
2022-08-23T05:51:13.376Z,20.40
2022-08-23T05:52:13.544Z,20.40
2022-08-23T05:53:15.722Z,20.60
2022-08-23T05:54:15.019Z,20.60
2022-08-23T05:55:15.026Z,20.50
2022-08-23T05:56:12.910Z,20.60
2022-08-23T05:57:13.460Z,20.60
2022-08-23T05:58:13.412Z,20.70
2022-08-23T05:59:13.379Z,20.70
2022-08-23T06:00:14.526Z,20.80
2022-08-23T06:01:14.359Z,20.80
2022-08-23T06:02:13.622Z,20.80
2022-08-23T06:03:13.587Z,20.90
2022-08-23T06:04:15.085Z,20.90
2022-08-23T06:05:12.941Z,21.00
2022-08-23T06:06:12.911Z,21.00
2022-08-23T06:07:14.288Z,21.10
2022-08-23T06:08:13.110Z,21.20
2022-08-23T06:09:13.006Z,21.30
2022-08-23T06:10:15.999Z,21.30
2022-08-23T06:11:15.735Z,21.20
2022-08-23T06:12:13.528Z,21.30
2022-08-23T06:13:15.758Z,21.40
2022-08-23T06:14:15.268Z,21.40
2022-08-23T06:15:13.448Z,21.40
2022-08-23T06:16:18.752Z,21.50
2022-08-23T06:17:16.275Z,21.50
2022-08-23T06:18:13.500Z,21.40
2022-08-23T06:19:13.309Z,21.50
2022-08-23T06:20:13.332Z,21.40
2022-08-23T06:21:13.391Z,21.50
2022-08-23T06:22:13.402Z,21.50
2022-08-23T06:23:15.156Z,21.50
2022-08-23T06:24:14.735Z,21.60
2022-08-23T06:25:13.673Z,21.50
2022-08-23T06:26:15.064Z,21.60
2022-08-23T06:27:15.243Z,21.70
2022-08-23T06:28:15.122Z,21.80
2022-08-23T06:29:13.108Z,21.70
2022-08-23T06:30:16.245Z,21.60
2022-08-23T06:31:17.684Z,21.50
2022-08-23T06:32:17.601Z,21.70
2022-08-23T06:33:16.668Z,21.90
2022-08-23T06:34:17.203Z,21.90
2022-08-23T06:35:37.594Z,22.00
2022-08-23T06:36:17.881Z,22.00
2022-08-23T06:37:13.664Z,22.10
2022-08-23T06:38:13.582Z,22.10
2022-08-23T06:39:13.548Z,21.90
2022-08-23T06:40:18.343Z,22.10
2022-08-23T06:41:13.510Z,22.20
2022-08-23T06:42:38.270Z,22.00
2022-08-23T06:43:13.520Z,22.10
2022-08-23T06:44:16.254Z,22.00
2022-08-23T06:45:15.010Z,22.20
2022-08-23T06:46:13.134Z,22.20
2022-08-23T06:47:17.297Z,22.40
2022-08-23T06:48:18.730Z,22.40
2022-08-23T06:49:16.935Z,22.40
2022-08-23T06:50:14.455Z,22.30
2022-08-23T06:51:14.900Z,22.30
2022-08-23T06:52:13.114Z,22.50
2022-08-23T06:53:13.251Z,22.70
2022-08-23T06:54:15.048Z,22.70
2022-08-23T06:55:13.885Z,22.80
2022-08-23T06:56:14.582Z,22.70
2022-08-23T06:57:15.149Z,22.60
2022-08-23T06:58:15.298Z,22.90
2022-08-23T06:59:13.209Z,22.90
2022-08-23T07:00:17.802Z,22.70
2022-08-23T07:01:34.976Z,22.70
2022-08-23T07:02:13.584Z,22.90
2022-08-23T07:03:17.628Z,22.80
2022-08-23T07:04:15.253Z,22.80
2022-08-23T07:05:13.464Z,22.90
2022-08-23T07:06:15.319Z,23.00
2022-08-23T07:07:14.997Z,23.10
2022-08-23T07:08:16.319Z,23.00
2022-08-23T07:09:17.228Z,23.10
2022-08-23T07:10:13.113Z,23.20
2022-08-23T07:11:16.267Z,23.20
2022-08-23T07:12:13.556Z,23.10
2022-08-23T07:13:18.389Z,23.40
2022-08-23T07:14:18.355Z,23.40
2022-08-23T07:15:14.892Z,23.60
2022-08-23T07:16:16.176Z,23.50
2022-08-23T07:17:13.144Z,23.60
2022-08-23T07:18:13.543Z,23.60
2022-08-23T07:19:18.932Z,23.80
2022-08-23T07:20:16.044Z,23.60
2022-08-23T07:21:16.436Z,23.60
2022-08-23T07:22:15.601Z,23.50
2022-08-23T07:23:18.590Z,23.50
2022-08-23T07:24:18.458Z,23.80
2022-08-23T07:25:15.060Z,23.90
2022-08-23T07:26:19.138Z,23.90
2022-08-23T07:27:16.202Z,23.70
2022-08-23T07:28:15.234Z,23.70
2022-08-23T07:29:17.856Z,23.80
2022-08-23T07:30:17.660Z,23.90
2022-08-23T07:31:16.250Z,24.00
2022-08-23T07:32:13.160Z,24.10
2022-08-23T07:33:13.217Z,24.00
2022-08-23T07:34:15.516Z,24.10
2022-08-23T07:35:16.579Z,24.10
2022-08-23T07:36:18.356Z,24.10
2022-08-23T07:37:15.385Z,24.30
2022-08-23T07:38:14.058Z,24.40
2022-08-23T07:39:16.308Z,24.40
2022-08-23T07:40:20.191Z,24.30
2022-08-23T07:41:16.386Z,24.40
2022-08-23T07:42:23.766Z,24.10
2022-08-23T07:43:18.653Z,24.30
2022-08-23T07:44:13.678Z,24.40
2022-08-23T07:45:16.049Z,24.60
2022-08-23T07:46:17.066Z,24.60
2022-08-23T07:47:18.351Z,24.60
2022-08-23T07:48:20.451Z,24.80
2022-08-23T07:49:19.287Z,24.80
2022-08-23T07:50:14.765Z,24.40
2022-08-23T07:51:16.791Z,24.40
2022-08-23T07:52:19.782Z,24.60
2022-08-23T07:53:13.591Z,24.60
2022-08-23T07:54:14.482Z,24.40
2022-08-23T07:55:16.541Z,24.50
2022-08-23T07:56:17.743Z,24.60
2022-08-23T07:57:14.504Z,24.70
2022-08-23T07:58:15.811Z,24.70
2022-08-23T07:59:15.220Z,24.70
2022-08-23T08:00:17.441Z,24.60
2022-08-23T08:01:15.465Z,24.90
2022-08-23T08:02:15.699Z,24.70
2022-08-23T08:03:16.895Z,24.80
2022-08-23T08:04:13.227Z,24.60
2022-08-23T08:05:21.469Z,24.80
2022-08-23T08:06:15.617Z,24.90
2022-08-23T08:07:20.394Z,24.80
2022-08-23T08:08:16.723Z,24.80
2022-08-23T08:09:19.401Z,24.80
2022-08-23T08:10:16.503Z,24.70
2022-08-23T08:11:17.930Z,24.80
2022-08-23T08:12:17.728Z,24.90
2022-08-23T08:13:17.955Z,24.90
2022-08-23T08:14:16.239Z,25.20
2022-08-23T08:15:16.030Z,25.30
2022-08-23T08:16:13.180Z,25.20
2022-08-23T08:17:13.584Z,25.10
2022-08-23T08:18:16.601Z,25.20
2022-08-23T08:19:19.271Z,25.30
2022-08-23T08:20:14.980Z,25.20
2022-08-23T08:21:14.782Z,25.00
2022-08-23T08:22:15.446Z,25.00
2022-08-23T08:23:16.528Z,25.10
2022-08-23T08:24:18.070Z,25.10
2022-08-23T08:25:18.588Z,25.20
2022-08-23T08:26:15.811Z,25.40
2022-08-23T08:27:18.132Z,25.20
2022-08-23T08:28:17.850Z,25.30
2022-08-23T08:29:17.843Z,25.20
2022-08-23T08:30:15.322Z,25.40
2022-08-23T08:31:14.956Z,25.40
2022-08-23T08:32:14.329Z,25.50
2022-08-23T08:33:18.314Z,25.40
2022-08-23T08:34:18.507Z,25.30
2022-08-23T08:35:16.585Z,25.50
2022-08-23T08:36:17.530Z,25.50
2022-08-23T08:37:18.512Z,25.50
2022-08-23T08:38:15.106Z,25.70
2022-08-23T08:39:15.069Z,25.90
2022-08-23T08:40:15.014Z,25.60
2022-08-23T08:41:14.102Z,25.70
2022-08-23T08:42:17.945Z,25.70
2022-08-23T08:43:15.103Z,25.90
2022-08-23T08:44:17.053Z,25.60
2022-08-23T08:45:16.155Z,25.70
2022-08-23T08:46:15.869Z,25.90
2022-08-23T08:47:18.372Z,25.90
2022-08-23T08:48:16.482Z,25.70
2022-08-23T08:49:19.092Z,25.90
2022-08-23T08:50:18.572Z,25.80
2022-08-23T08:51:16.699Z,25.80
2022-08-23T08:52:15.500Z,25.90
2022-08-23T08:53:21.358Z,25.80
2022-08-23T08:54:18.706Z,26.10
2022-08-23T08:55:16.540Z,26.30
2022-08-23T08:56:17.621Z,26.10
2022-08-23T08:57:16.776Z,25.80
2022-08-23T08:58:13.876Z,26.00
2022-08-23T08:59:16.062Z,26.20
2022-08-23T09:00:16.554Z,26.30
2022-08-23T09:01:15.238Z,26.30
2022-08-23T09:02:31.958Z,26.30
2022-08-23T09:03:16.319Z,26.30
2022-08-23T09:04:16.411Z,26.60
2022-08-23T09:05:17.217Z,26.80
2022-08-23T09:06:14.267Z,26.70
2022-08-23T09:07:19.578Z,26.50
2022-08-23T09:08:18.791Z,26.90
2022-08-23T09:09:19.380Z,26.90
2022-08-23T09:10:21.114Z,26.80
2022-08-23T09:11:14.790Z,26.70
2022-08-23T09:12:20.205Z,26.80
2022-08-23T09:13:17.779Z,26.90
2022-08-23T09:14:17.523Z,26.80
2022-08-23T09:15:15.869Z,26.90
2022-08-23T09:16:16.011Z,27.00
2022-08-23T09:17:17.114Z,27.10
2022-08-23T09:18:18.261Z,27.10
2022-08-23T09:19:17.797Z,27.30
2022-08-23T09:20:18.522Z,27.10
2022-08-23T09:21:18.167Z,27.60
2022-08-23T09:22:17.855Z,27.80
2022-08-23T09:23:17.236Z,27.80
2022-08-23T09:24:17.685Z,28.80
2022-08-23T09:25:16.968Z,29.30
2022-08-23T09:26:18.849Z,30.10
2022-08-23T09:27:15.950Z,30.10
2022-08-23T09:28:17.699Z,30.70
2022-08-23T09:29:17.502Z,30.70
2022-08-23T09:30:19.683Z,31.00
2022-08-23T09:31:20.460Z,30.10
2022-08-23T09:32:17.846Z,31.10
2022-08-23T09:33:18.395Z,31.10
2022-08-23T09:34:17.968Z,31.00
2022-08-23T09:35:17.641Z,31.10
2022-08-23T09:36:18.301Z,30.40
2022-08-23T09:37:19.042Z,30.90
2022-08-23T09:38:18.306Z,30.60
2022-08-23T09:39:16.634Z,30.90
2022-08-23T09:40:18.572Z,31.00
2022-08-23T09:41:20.015Z,31.40
2022-08-23T09:42:17.377Z,31.90
2022-08-23T09:43:16.549Z,31.60
2022-08-23T09:44:18.164Z,31.70
2022-08-23T09:45:18.214Z,31.80
2022-08-23T09:46:18.651Z,30.90
2022-08-23T09:47:20.166Z,31.90
2022-08-23T09:48:16.801Z,32.30
2022-08-23T09:49:19.053Z,31.10
2022-08-23T09:50:16.590Z,31.00
2022-08-23T09:51:19.920Z,31.30
2022-08-23T09:52:22.281Z,31.10
2022-08-23T09:53:18.300Z,31.60
2022-08-23T09:54:18.655Z,31.90
2022-08-23T09:55:19.063Z,32.40
2022-08-23T09:56:19.148Z,32.40
2022-08-23T09:57:14.293Z,32.00
2022-08-23T09:58:17.213Z,31.60
2022-08-23T09:59:17.307Z,32.10
2022-08-23T10:00:17.700Z,32.10
2022-08-23T10:01:19.215Z,31.20
2022-08-23T10:02:17.195Z,31.10
2022-08-23T10:03:17.175Z,30.80
2022-08-23T10:04:19.123Z,31.80
2022-08-23T10:05:17.847Z,31.60
2022-08-23T10:06:19.773Z,31.20
2022-08-23T10:07:18.968Z,31.40
2022-08-23T10:08:18.979Z,31.00
2022-08-23T10:09:18.291Z,30.90
2022-08-23T10:10:17.379Z,31.50
2022-08-23T10:11:16.537Z,30.90
2022-08-23T10:12:17.031Z,30.20
2022-08-23T10:13:20.775Z,30.60
2022-08-23T10:14:19.906Z,31.30
2022-08-23T10:15:19.477Z,31.30
2022-08-23T10:16:19.405Z,31.50
2022-08-23T10:17:18.143Z,32.30
2022-08-23T10:18:19.082Z,32.30
2022-08-23T10:19:19.183Z,32.30
2022-08-23T10:20:19.166Z,33.30
2022-08-23T10:21:20.969Z,32.00
2022-08-23T10:22:18.609Z,32.60
2022-08-23T10:23:18.230Z,33.40
2022-08-23T10:24:20.213Z,33.50
2022-08-23T10:25:19.278Z,33.50
2022-08-23T10:26:18.065Z,33.80
2022-08-23T10:27:16.519Z,34.30
2022-08-23T10:28:18.801Z,33.30
2022-08-23T10:29:18.671Z,32.10
2022-08-23T10:30:18.202Z,32.10
2022-08-23T10:31:17.885Z,32.80
2022-08-23T10:32:19.573Z,31.50
2022-08-23T10:33:18.827Z,31.90
2022-08-23T10:34:15.933Z,31.70
2022-08-23T10:35:20.539Z,32.10
2022-08-23T10:36:19.494Z,32.00
2022-08-23T10:37:19.794Z,31.70
2022-08-23T10:38:18.494Z,31.10
2022-08-23T10:39:20.846Z,31.30
2022-08-23T10:40:16.456Z,31.40
2022-08-23T10:41:18.286Z,31.60
2022-08-23T10:42:16.650Z,32.00
2022-08-23T10:43:18.716Z,32.00
2022-08-23T10:44:18.288Z,32.10
2022-08-23T10:45:17.823Z,32.70
2022-08-23T10:46:16.885Z,32.50
2022-08-23T10:47:19.048Z,32.20
2022-08-23T10:48:21.476Z,32.30
2022-08-23T10:49:18.788Z,32.00
2022-08-23T10:50:19.651Z,32.70
2022-08-23T10:51:23.060Z,33.20
2022-08-23T10:52:16.658Z,33.20
2022-08-23T10:53:22.640Z,32.50
2022-08-23T10:54:19.254Z,31.80
2022-08-23T10:55:19.826Z,32.40
2022-08-23T10:56:16.719Z,33.10
2022-08-23T10:57:18.966Z,32.80
2022-08-23T10:58:17.732Z,33.10
2022-08-23T10:59:19.680Z,33.00
2022-08-23T11:00:19.077Z,32.60
2022-08-23T11:01:18.204Z,33.20
2022-08-23T11:02:19.249Z,33.90
2022-08-23T11:03:18.992Z,34.60
2022-08-23T11:04:19.027Z,34.50
2022-08-23T11:05:20.567Z,33.90
2022-08-23T11:06:17.849Z,34.80
2022-08-23T11:07:18.596Z,34.10
2022-08-23T11:08:19.427Z,34.30
2022-08-23T11:09:18.012Z,34.00
2022-08-23T11:10:18.910Z,33.70
2022-08-23T11:11:20.191Z,33.40
2022-08-23T11:12:19.456Z,33.70
2022-08-23T11:13:19.281Z,33.30
2022-08-23T11:14:22.506Z,33.50
2022-08-23T11:15:19.466Z,32.90
2022-08-23T11:16:19.685Z,33.60
2022-08-23T11:17:20.314Z,33.20
2022-08-23T11:18:21.289Z,33.20
2022-08-23T11:19:18.037Z,33.30
2022-08-23T11:20:20.253Z,33.90
2022-08-23T11:21:18.769Z,34.10
2022-08-23T11:22:18.849Z,33.50
2022-08-23T11:23:18.645Z,33.90
2022-08-23T11:24:21.339Z,34.40
2022-08-23T11:25:20.109Z,34.70
2022-08-23T11:26:19.964Z,34.60
2022-08-23T11:27:19.969Z,34.20
2022-08-23T11:28:19.371Z,33.80
2022-08-23T11:29:21.824Z,33.50
2022-08-23T11:30:21.205Z,33.80
2022-08-23T11:31:21.082Z,33.50
2022-08-23T11:32:20.240Z,34.30
2022-08-23T11:33:19.122Z,35.00
2022-08-23T11:34:20.821Z,35.50
2022-08-23T11:35:20.679Z,35.80
2022-08-23T11:36:19.947Z,36.10
2022-08-23T11:37:20.504Z,36.10
2022-08-23T11:38:22.643Z,35.90
2022-08-23T11:39:25.335Z,35.00
2022-08-23T11:40:21.564Z,35.10
2022-08-23T11:41:19.593Z,34.30
2022-08-23T11:42:22.177Z,34.80
2022-08-23T11:43:18.893Z,34.70
2022-08-23T11:44:19.250Z,34.20
2022-08-23T11:45:21.633Z,35.20
2022-08-23T11:46:19.946Z,35.20
2022-08-23T11:47:21.391Z,36.00
2022-08-23T11:48:19.357Z,35.20
2022-08-23T11:49:19.935Z,35.10
2022-08-23T11:50:20.524Z,35.50
2022-08-23T11:51:20.342Z,35.00
2022-08-23T11:52:20.891Z,34.60
2022-08-23T11:53:20.571Z,34.80
2022-08-23T11:54:21.641Z,34.70
2022-08-23T11:55:20.891Z,34.50
2022-08-23T11:56:26.693Z,34.50
2022-08-23T11:57:24.911Z,34.00
2022-08-23T11:58:20.940Z,33.80
2022-08-23T11:59:20.405Z,34.20
2022-08-23T12:00:20.994Z,35.20
2022-08-23T12:01:20.534Z,35.70
2022-08-23T12:02:20.816Z,35.30
2022-08-23T12:03:21.621Z,34.60
2022-08-23T12:04:21.496Z,34.10
2022-08-23T12:05:20.988Z,34.30
2022-08-23T12:06:21.576Z,34.30
2022-08-23T12:07:20.434Z,34.90
2022-08-23T12:08:21.495Z,35.30
2022-08-23T12:09:21.016Z,34.80
2022-08-23T12:10:20.586Z,33.40
2022-08-23T12:11:20.492Z,34.40
2022-08-23T12:12:19.087Z,34.30
2022-08-23T12:13:14.602Z,35.20
2022-08-23T12:14:13.643Z,34.80
2022-08-23T12:15:13.823Z,35.70
2022-08-23T12:16:16.189Z,35.20
2022-08-23T12:17:13.361Z,34.90
2022-08-23T12:18:13.191Z,34.60
2022-08-23T12:19:13.784Z,35.40
2022-08-23T12:20:16.258Z,35.20
2022-08-23T12:21:13.419Z,35.60
2022-08-23T12:22:13.775Z,34.60
2022-08-23T12:23:14.107Z,34.50
2022-08-23T12:24:18.320Z,33.70
2022-08-23T12:25:13.208Z,34.20
2022-08-23T12:26:18.651Z,33.00
2022-08-23T12:27:13.817Z,33.20
2022-08-23T12:28:13.947Z,32.90
2022-08-23T12:29:12.756Z,33.20
2022-08-23T12:30:13.636Z,33.70
2022-08-23T12:31:14.136Z,33.70
2022-08-23T12:32:13.539Z,34.30
2022-08-23T12:33:13.807Z,33.70
2022-08-23T12:34:13.813Z,34.60
2022-08-23T12:35:13.690Z,34.90
2022-08-23T12:36:16.368Z,34.70
2022-08-23T12:37:13.820Z,34.50
2022-08-23T12:38:14.306Z,33.90
2022-08-23T12:39:13.110Z,34.40
2022-08-23T12:40:13.051Z,33.80
2022-08-23T12:41:13.246Z,33.70
2022-08-23T12:42:13.612Z,34.00
2022-08-23T12:43:17.393Z,34.20
2022-08-23T12:44:13.861Z,34.30
2022-08-23T12:45:13.972Z,33.60
2022-08-23T12:46:13.030Z,34.30
2022-08-23T12:47:13.055Z,34.60
2022-08-23T12:48:13.323Z,34.90
2022-08-23T12:49:13.564Z,35.30
2022-08-23T12:50:12.987Z,36.30
2022-08-23T12:51:14.213Z,36.60
2022-08-23T12:52:13.549Z,36.60